sensor_id;sensor_type;location;lat;lon;timestamp;temperature;humidity
65239;SHT30;51827;51.186;6.926;2023-01-15T00:00:18;19.30;57.31
65239;SHT30;51827;51.186;6.926;2023-01-15T00:01:25;19.29;57.26
65239;SHT30;51827;51.186;6.926;2023-01-15T00:02:25;19.29;57.26
65239;SHT30;51827;51.186;6.926;2023-01-15T00:03:26;19.29;57.25
65239;SHT30;51827;51.186;6.926;2023-01-15T00:04:26;19.27;57.22
65239;SHT30;51827;51.186;6.926;2023-01-15T00:05:27;19.27;57.26
65239;SHT30;51827;51.186;6.926;2023-01-15T00:06:27;19.27;57.17
65239;SHT30;51827;51.186;6.926;2023-01-15T00:07:29;19.29;57.17
65239;SHT30;51827;51.186;6.926;2023-01-15T00:08:29;19.24;57.13
65239;SHT30;51827;51.186;6.926;2023-01-15T00:09:29;19.26;57.15
65239;SHT30;51827;51.186;6.926;2023-01-15T00:10:29;19.24;57.12
65239;SHT30;51827;51.186;6.926;2023-01-15T00:11:30;19.24;57.15
65239;SHT30;51827;51.186;6.926;2023-01-15T00:12:30;19.29;57.13
65239;SHT30;51827;51.186;6.926;2023-01-15T00:13:31;19.29;57.09
65239;SHT30;51827;51.186;6.926;2023-01-15T00:14:31;19.26;57.09
65239;SHT30;51827;51.186;6.926;2023-01-15T00:15:31;19.26;57.03
65239;SHT30;51827;51.186;6.926;2023-01-15T00:16:31;19.26;57.08
65239;SHT30;51827;51.186;6.926;2023-01-15T00:17:32;19.22;57.09
65239;SHT30;51827;51.186;6.926;2023-01-15T00:18:32;19.26;57.10
65239;SHT30;51827;51.186;6.926;2023-01-15T00:19:33;19.26;57.04
65239;SHT30;51827;51.186;6.926;2023-01-15T00:20:33;19.24;57.04
65239;SHT30;51827;51.186;6.926;2023-01-15T00:21:33;19.22;57.02
65239;SHT30;51827;51.186;6.926;2023-01-15T00:22:34;19.23;57.00
65239;SHT30;51827;51.186;6.926;2023-01-15T00:23:34;19.23;57.03
65239;SHT30;51827;51.186;6.926;2023-01-15T00:24:35;19.24;57.00
65239;SHT30;51827;51.186;6.926;2023-01-15T00:25:35;19.23;56.96
65239;SHT30;51827;51.186;6.926;2023-01-15T00:26:36;19.23;56.93
65239;SHT30;51827;51.186;6.926;2023-01-15T00:27:36;19.23;56.93
65239;SHT30;51827;51.186;6.926;2023-01-15T00:28:36;19.23;56.91
65239;SHT30;51827;51.186;6.926;2023-01-15T00:29:37;19.27;56.86
65239;SHT30;51827;51.186;6.926;2023-01-15T00:30:40;19.22;56.86
65239;SHT30;51827;51.186;6.926;2023-01-15T00:31:40;19.24;56.88
65239;SHT30;51827;51.186;6.926;2023-01-15T00:32:42;19.26;56.82
65239;SHT30;51827;51.186;6.926;2023-01-15T00:33:43;19.20;56.90
65239;SHT30;51827;51.186;6.926;2023-01-15T00:34:43;19.24;56.79
65239;SHT30;51827;51.186;6.926;2023-01-15T00:35:43;19.23;56.80
65239;SHT30;51827;51.186;6.926;2023-01-15T00:36:44;19.24;56.79
65239;SHT30;51827;51.186;6.926;2023-01-15T00:37:44;19.23;56.78
65239;SHT30;51827;51.186;6.926;2023-01-15T00:38:44;19.22;56.75
65239;SHT30;51827;51.186;6.926;2023-01-15T00:39:44;19.20;56.77
65239;SHT30;51827;51.186;6.926;2023-01-15T00:40:45;19.20;56.76
65239;SHT30;51827;51.186;6.926;2023-01-15T00:41:45;19.20;56.74
65239;SHT30;51827;51.186;6.926;2023-01-15T00:42:46;19.19;56.71
65239;SHT30;51827;51.186;6.926;2023-01-15T00:43:46;19.20;56.75
65239;SHT30;51827;51.186;6.926;2023-01-15T00:44:46;19.18;56.77
65239;SHT30;51827;51.186;6.926;2023-01-15T00:45:46;19.18;56.75
65239;SHT30;51827;51.186;6.926;2023-01-15T00:46:47;19.19;56.73
65239;SHT30;51827;51.186;6.926;2023-01-15T00:47:47;19.18;56.69
65239;SHT30;51827;51.186;6.926;2023-01-15T00:48:47;19.18;56.71
65239;SHT30;51827;51.186;6.926;2023-01-15T00:49:48;19.16;56.68
65239;SHT30;51827;51.186;6.926;2023-01-15T00:50:48;19.16;56.67
65239;SHT30;51827;51.186;6.926;2023-01-15T00:51:48;19.18;56.66
65239;SHT30;51827;51.186;6.926;2023-01-15T00:52:48;19.18;56.64
65239;SHT30;51827;51.186;6.926;2023-01-15T00:53:49;19.15;56.62
65239;SHT30;51827;51.186;6.926;2023-01-15T00:54:49;19.16;56.63
65239;SHT30;51827;51.186;6.926;2023-01-15T00:55:49;19.15;56.59
65239;SHT30;51827;51.186;6.926;2023-01-15T00:56:49;19.16;56.63
65239;SHT30;51827;51.186;6.926;2023-01-15T00:57:50;19.13;56.64
65239;SHT30;51827;51.186;6.926;2023-01-15T00:58:50;19.15;56.59
65239;SHT30;51827;51.186;6.926;2023-01-15T00:59:50;19.15;56.60
65239;SHT30;51827;51.186;6.926;2023-01-15T01:00:54;19.16;56.59
65239;SHT30;51827;51.186;6.926;2023-01-15T01:01:55;19.16;56.55
65239;SHT30;51827;51.186;6.926;2023-01-15T01:02:56;19.15;56.59
65239;SHT30;51827;51.186;6.926;2023-01-15T01:03:56;19.16;56.55
65239;SHT30;51827;51.186;6.926;2023-01-15T01:04:56;19.19;56.51
65239;SHT30;51827;51.186;6.926;2023-01-15T01:06:01;19.15;56.48
65239;SHT30;51827;51.186;6.926;2023-01-15T01:07:01;19.18;56.45
65239;SHT30;51827;51.186;6.926;2023-01-15T01:08:01;19.19;56.47
65239;SHT30;51827;51.186;6.926;2023-01-15T01:09:02;19.16;56.40
65239;SHT30;51827;51.186;6.926;2023-01-15T01:10:03;19.18;56.42
65239;SHT30;51827;51.186;6.926;2023-01-15T01:11:05;19.15;56.44
65239;SHT30;51827;51.186;6.926;2023-01-15T01:12:06;19.19;56.41
65239;SHT30;51827;51.186;6.926;2023-01-15T01:13:07;19.18;56.39
65239;SHT30;51827;51.186;6.926;2023-01-15T01:14:09;19.18;56.34
65239;SHT30;51827;51.186;6.926;2023-01-15T01:15:09;19.13;56.36
65239;SHT30;51827;51.186;6.926;2023-01-15T01:16:30;19.15;56.37
65239;SHT30;51827;51.186;6.926;2023-01-15T01:17:31;19.13;56.32
65239;SHT30;51827;51.186;6.926;2023-01-15T01:18:31;19.15;56.36
65239;SHT30;51827;51.186;6.926;2023-01-15T01:19:32;19.13;56.36
65239;SHT30;51827;51.186;6.926;2023-01-15T01:20:33;19.15;56.33
65239;SHT30;51827;51.186;6.926;2023-01-15T01:21:33;19.15;56.30
65239;SHT30;51827;51.186;6.926;2023-01-15T01:22:33;19.16;56.28
65239;SHT30;51827;51.186;6.926;2023-01-15T01:23:34;19.13;56.28
65239;SHT30;51827;51.186;6.926;2023-01-15T01:24:34;19.15;56.27
65239;SHT30;51827;51.186;6.926;2023-01-15T01:25:35;19.15;56.25
65239;SHT30;51827;51.186;6.926;2023-01-15T01:26:35;19.15;56.28
65239;SHT30;51827;51.186;6.926;2023-01-15T01:27:35;19.10;56.24
65239;SHT30;51827;51.186;6.926;2023-01-15T01:28:35;19.13;56.16
65239;SHT30;51827;51.186;6.926;2023-01-15T01:29:36;19.13;56.16
65239;SHT30;51827;51.186;6.926;2023-01-15T01:30:37;19.12;56.21
65239;SHT30;51827;51.186;6.926;2023-01-15T01:31:37;19.12;56.25
65239;SHT30;51827;51.186;6.926;2023-01-15T01:32:38;19.15;56.20
65239;SHT30;51827;51.186;6.926;2023-01-15T01:33:38;19.13;56.21
65239;SHT30;51827;51.186;6.926;2023-01-15T01:34:38;19.12;56.17
65239;SHT30;51827;51.186;6.926;2023-01-15T01:35:38;19.15;56.14
65239;SHT30;51827;51.186;6.926;2023-01-15T01:36:40;19.13;56.16
65239;SHT30;51827;51.186;6.926;2023-01-15T01:37:41;19.12;56.16
65239;SHT30;51827;51.186;6.926;2023-01-15T01:38:41;19.13;56.12
65239;SHT30;51827;51.186;6.926;2023-01-15T01:39:42;19.12;56.13
65239;SHT30;51827;51.186;6.926;2023-01-15T01:40:42;19.13;56.12
65239;SHT30;51827;51.186;6.926;2023-01-15T01:41:43;19.10;56.12
65239;SHT30;51827;51.186;6.926;2023-01-15T01:42:44;19.13;56.06
65239;SHT30;51827;51.186;6.926;2023-01-15T01:43:56;19.13;56.12
65239;SHT30;51827;51.186;6.926;2023-01-15T01:45:00;19.10;56.07
65239;SHT30;51827;51.186;6.926;2023-01-15T01:46:00;19.10;56.03
65239;SHT30;51827;51.186;6.926;2023-01-15T01:47:05;19.15;56.05
65239;SHT30;51827;51.186;6.926;2023-01-15T01:48:06;19.13;56.08
65239;SHT30;51827;51.186;6.926;2023-01-15T01:49:11;19.10;56.05
65239;SHT30;51827;51.186;6.926;2023-01-15T01:50:13;19.10;55.99
65239;SHT30;51827;51.186;6.926;2023-01-15T01:51:13;19.13;55.99
65239;SHT30;51827;51.186;6.926;2023-01-15T01:52:17;19.10;56.00
65239;SHT30;51827;51.186;6.926;2023-01-15T01:53:22;19.10;56.07
65239;SHT30;51827;51.186;6.926;2023-01-15T01:54:25;19.09;56.01
65239;SHT30;51827;51.186;6.926;2023-01-15T01:55:29;19.08;55.99
65239;SHT30;51827;51.186;6.926;2023-01-15T01:56:31;19.08;55.96
65239;SHT30;51827;51.186;6.926;2023-01-15T01:57:33;19.10;56.00
65239;SHT30;51827;51.186;6.926;2023-01-15T01:58:34;19.09;56.00
65239;SHT30;51827;51.186;6.926;2023-01-15T01:59:35;19.10;55.99
65239;SHT30;51827;51.186;6.926;2023-01-15T02:00:40;19.08;55.98
65239;SHT30;51827;51.186;6.926;2023-01-15T02:01:41;19.08;55.92
65239;SHT30;51827;51.186;6.926;2023-01-15T02:02:44;19.09;55.94
65239;SHT30;51827;51.186;6.926;2023-01-15T02:03:45;19.09;55.93
65239;SHT30;51827;51.186;6.926;2023-01-15T02:04:45;19.06;55.97
65239;SHT30;51827;51.186;6.926;2023-01-15T02:05:52;19.08;55.99
65239;SHT30;51827;51.186;6.926;2023-01-15T02:06:53;19.08;55.93
65239;SHT30;51827;51.186;6.926;2023-01-15T02:07:54;19.09;55.88
65239;SHT30;51827;51.186;6.926;2023-01-15T02:08:55;19.10;55.82
65239;SHT30;51827;51.186;6.926;2023-01-15T02:09:55;19.08;55.85
65239;SHT30;51827;51.186;6.926;2023-01-15T02:10:55;19.08;55.86
65239;SHT30;51827;51.186;6.926;2023-01-15T02:12:12;19.09;55.79
65239;SHT30;51827;51.186;6.926;2023-01-15T02:13:38;19.06;55.78
65239;SHT30;51827;51.186;6.926;2023-01-15T02:14:54;19.09;55.83
65239;SHT30;51827;51.186;6.926;2023-01-15T02:16:16;19.06;55.78
65239;SHT30;51827;51.186;6.926;2023-01-15T02:17:54;19.08;55.74
65239;SHT30;51827;51.186;6.926;2023-01-15T02:19:28;19.06;55.71
65239;SHT30;51827;51.186;6.926;2023-01-15T02:20:38;19.03;55.74
65239;SHT30;51827;51.186;6.926;2023-01-15T02:22:03;19.05;55.74
65239;SHT30;51827;51.186;6.926;2023-01-15T02:23:26;19.08;55.69
65239;SHT30;51827;51.186;6.926;2023-01-15T02:27:26;19.06;55.68
65239;SHT30;51827;51.186;6.926;2023-01-15T02:28:47;19.06;55.55
65239;SHT30;51827;51.186;6.926;2023-01-15T02:29:50;19.05;55.59
65239;SHT30;51827;51.186;6.926;2023-01-15T02:32:18;19.05;55.57
65239;SHT30;51827;51.186;6.926;2023-01-15T02:33:25;19.06;55.55
65239;SHT30;51827;51.186;6.926;2023-01-15T02:34:31;19.03;55.57
65239;SHT30;51827;51.186;6.926;2023-01-15T02:35:56;19.06;55.51
65239;SHT30;51827;51.186;6.926;2023-01-15T02:37:09;19.05;55.51
65239;SHT30;51827;51.186;6.926;2023-01-15T02:38:12;19.06;55.42
65239;SHT30;51827;51.186;6.926;2023-01-15T02:39:15;19.06;55.43
65239;SHT30;51827;51.186;6.926;2023-01-15T02:40:18;19.05;55.48
65239;SHT30;51827;51.186;6.926;2023-01-15T02:41:24;19.00;55.48
65239;SHT30;51827;51.186;6.926;2023-01-15T02:42:27;19.08;55.49
65239;SHT30;51827;51.186;6.926;2023-01-15T02:43:32;19.02;55.51
65239;SHT30;51827;51.186;6.926;2023-01-15T02:44:35;19.02;55.47
65239;SHT30;51827;51.186;6.926;2023-01-15T02:45:40;19.03;55.42
65239;SHT30;51827;51.186;6.926;2023-01-15T02:46:42;19.02;55.38
65239;SHT30;51827;51.186;6.926;2023-01-15T02:47:42;19.06;55.39
65239;SHT30;51827;51.186;6.926;2023-01-15T02:48:45;19.05;55.35
65239;SHT30;51827;51.186;6.926;2023-01-15T02:49:46;19.03;55.34
65239;SHT30;51827;51.186;6.926;2023-01-15T02:50:58;19.06;55.32
65239;SHT30;51827;51.186;6.926;2023-01-15T02:52:05;19.02;55.35
65239;SHT30;51827;51.186;6.926;2023-01-15T02:53:08;19.02;55.31
65239;SHT30;51827;51.186;6.926;2023-01-15T02:54:12;19.00;55.31
65239;SHT30;51827;51.186;6.926;2023-01-15T02:55:19;19.02;55.26
65239;SHT30;51827;51.186;6.926;2023-01-15T02:56:24;19.00;55.27
65239;SHT30;51827;51.186;6.926;2023-01-15T02:57:27;19.00;55.33
65239;SHT30;51827;51.186;6.926;2023-01-15T02:58:32;19.03;55.22
65239;SHT30;51827;51.186;6.926;2023-01-15T02:59:37;19.03;55.18
65239;SHT30;51827;51.186;6.926;2023-01-15T03:00:42;19.05;55.27
65239;SHT30;51827;51.186;6.926;2023-01-15T03:01:47;19.03;55.18
65239;SHT30;51827;51.186;6.926;2023-01-15T03:03:00;18.99;55.20
65239;SHT30;51827;51.186;6.926;2023-01-15T03:04:08;19.06;55.16
65239;SHT30;51827;51.186;6.926;2023-01-15T03:05:21;19.05;55.07
65239;SHT30;51827;51.186;6.926;2023-01-15T03:06:41;19.02;55.09
65239;SHT30;51827;51.186;6.926;2023-01-15T03:07:48;19.02;55.16
65239;SHT30;51827;51.186;6.926;2023-01-15T03:08:49;19.02;55.12
65239;SHT30;51827;51.186;6.926;2023-01-15T03:09:50;19.02;55.03
65239;SHT30;51827;51.186;6.926;2023-01-15T03:11:02;19.00;55.07
65239;SHT30;51827;51.186;6.926;2023-01-15T03:12:14;19.00;55.09
65239;SHT30;51827;51.186;6.926;2023-01-15T03:16:04;19.02;55.00
65239;SHT30;51827;51.186;6.926;2023-01-15T03:17:19;19.00;55.03
65239;SHT30;51827;51.186;6.926;2023-01-15T03:18:20;19.00;54.98
65239;SHT30;51827;51.186;6.926;2023-01-15T03:21:12;18.99;54.96
65239;SHT30;51827;51.186;6.926;2023-01-15T03:22:27;19.02;54.93
65239;SHT30;51827;51.186;6.926;2023-01-15T03:23:31;18.99;54.87
65239;SHT30;51827;51.186;6.926;2023-01-15T03:24:40;18.99;54.87
65239;SHT30;51827;51.186;6.926;2023-01-15T03:25:45;18.98;54.90
65239;SHT30;51827;51.186;6.926;2023-01-15T03:26:46;18.99;54.94
65239;SHT30;51827;51.186;6.926;2023-01-15T03:27:47;19.00;54.84
65239;SHT30;51827;51.186;6.926;2023-01-15T03:28:47;18.96;54.79
65239;SHT30;51827;51.186;6.926;2023-01-15T03:29:49;18.99;54.88
65239;SHT30;51827;51.186;6.926;2023-01-15T03:30:51;19.02;54.83
65239;SHT30;51827;51.186;6.926;2023-01-15T03:31:52;18.98;54.87
65239;SHT30;51827;51.186;6.926;2023-01-15T03:32:53;18.98;54.80
65239;SHT30;51827;51.186;6.926;2023-01-15T03:33:53;18.99;54.80
65239;SHT30;51827;51.186;6.926;2023-01-15T03:34:54;19.00;54.65
65239;SHT30;51827;51.186;6.926;2023-01-15T03:35:59;19.02;54.73
65239;SHT30;51827;51.186;6.926;2023-01-15T03:36:59;19.00;54.76
65239;SHT30;51827;51.186;6.926;2023-01-15T03:38:00;18.98;54.76
65239;SHT30;51827;51.186;6.926;2023-01-15T03:39:00;18.96;54.60
65239;SHT30;51827;51.186;6.926;2023-01-15T03:40:00;18.95;54.62
65239;SHT30;51827;51.186;6.926;2023-01-15T03:42:22;18.96;54.64
65239;SHT30;51827;51.186;6.926;2023-01-15T03:43:51;18.99;54.53
65239;SHT30;51827;51.186;6.926;2023-01-15T03:46:06;18.98;54.62
65239;SHT30;51827;51.186;6.926;2023-01-15T03:48:34;18.95;54.54
65239;SHT30;51827;51.186;6.926;2023-01-15T03:51:01;18.98;54.51
65239;SHT30;51827;51.186;6.926;2023-01-15T03:52:29;18.96;54.44
65239;SHT30;51827;51.186;6.926;2023-01-15T03:56:07;18.95;54.52
65239;SHT30;51827;51.186;6.926;2023-01-15T03:57:16;18.95;54.44
65239;SHT30;51827;51.186;6.926;2023-01-15T03:58:21;18.96;54.39
65239;SHT30;51827;51.186;6.926;2023-01-15T03:59:28;18.98;54.38
65239;SHT30;51827;51.186;6.926;2023-01-15T04:00:37;18.95;54.43
65239;SHT30;51827;51.186;6.926;2023-01-15T04:01:40;18.92;54.45
65239;SHT30;51827;51.186;6.926;2023-01-15T04:02:42;18.91;54.43
65239;SHT30;51827;51.186;6.926;2023-01-15T04:03:45;18.94;54.44
65239;SHT30;51827;51.186;6.926;2023-01-15T04:04:46;18.94;54.41
65239;SHT30;51827;51.186;6.926;2023-01-15T04:05:47;18.94;54.41
65239;SHT30;51827;51.186;6.926;2023-01-15T04:06:48;18.96;54.40
65239;SHT30;51827;51.186;6.926;2023-01-15T04:07:49;18.95;54.38
65239;SHT30;51827;51.186;6.926;2023-01-15T04:08:51;18.94;54.36
65239;SHT30;51827;51.186;6.926;2023-01-15T04:09:52;18.94;54.35
65239;SHT30;51827;51.186;6.926;2023-01-15T04:10:58;18.96;54.38
65239;SHT30;51827;51.186;6.926;2023-01-15T04:11:59;18.95;54.35
65239;SHT30;51827;51.186;6.926;2023-01-15T04:12:59;18.95;54.28
65239;SHT30;51827;51.186;6.926;2023-01-15T04:14:00;18.94;54.36
65239;SHT30;51827;51.186;6.926;2023-01-15T04:15:00;18.94;54.31
65239;SHT30;51827;51.186;6.926;2023-01-15T04:16:00;18.94;54.24
65239;SHT30;51827;51.186;6.926;2023-01-15T04:17:01;18.95;54.28
65239;SHT30;51827;51.186;6.926;2023-01-15T04:18:01;18.94;54.22
65239;SHT30;51827;51.186;6.926;2023-01-15T04:19:01;18.94;54.22
65239;SHT30;51827;51.186;6.926;2023-01-15T04:20:02;18.94;54.30
65239;SHT30;51827;51.186;6.926;2023-01-15T04:21:02;18.92;54.26
65239;SHT30;51827;51.186;6.926;2023-01-15T04:22:03;18.92;54.25
65239;SHT30;51827;51.186;6.926;2023-01-15T04:23:03;18.94;54.23
65239;SHT30;51827;51.186;6.926;2023-01-15T04:24:03;18.94;54.24
65239;SHT30;51827;51.186;6.926;2023-01-15T04:25:05;18.91;54.26
65239;SHT30;51827;51.186;6.926;2023-01-15T04:26:05;18.95;54.23
65239;SHT30;51827;51.186;6.926;2023-01-15T04:27:05;18.92;54.19
65239;SHT30;51827;51.186;6.926;2023-01-15T04:28:08;18.92;54.22
65239;SHT30;51827;51.186;6.926;2023-01-15T04:29:08;18.95;54.14
65239;SHT30;51827;51.186;6.926;2023-01-15T04:30:09;18.94;54.15
65239;SHT30;51827;51.186;6.926;2023-01-15T04:31:09;18.94;54.11
65239;SHT30;51827;51.186;6.926;2023-01-15T04:32:10;18.94;54.08
65239;SHT30;51827;51.186;6.926;2023-01-15T04:33:10;18.92;54.13
65239;SHT30;51827;51.186;6.926;2023-01-15T04:34:10;18.92;54.09
65239;SHT30;51827;51.186;6.926;2023-01-15T04:35:11;18.92;54.06
65239;SHT30;51827;51.186;6.926;2023-01-15T04:36:11;18.91;54.12
65239;SHT30;51827;51.186;6.926;2023-01-15T04:37:13;18.92;54.10
65239;SHT30;51827;51.186;6.926;2023-01-15T04:38:13;18.89;54.06
65239;SHT30;51827;51.186;6.926;2023-01-15T04:39:13;18.94;54.04
65239;SHT30;51827;51.186;6.926;2023-01-15T04:40:14;18.94;54.05
65239;SHT30;51827;51.186;6.926;2023-01-15T04:41:14;18.94;54.05
65239;SHT30;51827;51.186;6.926;2023-01-15T04:42:14;18.91;54.07
65239;SHT30;51827;51.186;6.926;2023-01-15T04:43:14;18.89;54.02
65239;SHT30;51827;51.186;6.926;2023-01-15T04:44:15;18.94;53.94
65239;SHT30;51827;51.186;6.926;2023-01-15T04:45:15;18.92;54.02
65239;SHT30;51827;51.186;6.926;2023-01-15T04:46:20;18.91;54.07
65239;SHT30;51827;51.186;6.926;2023-01-15T04:47:20;18.92;54.03
65239;SHT30;51827;51.186;6.926;2023-01-15T04:48:20;18.91;53.98
65239;SHT30;51827;51.186;6.926;2023-01-15T04:49:20;18.89;53.96
65239;SHT30;51827;51.186;6.926;2023-01-15T04:50:21;18.91;53.93
65239;SHT30;51827;51.186;6.926;2023-01-15T04:51:21;18.91;53.87
65239;SHT30;51827;51.186;6.926;2023-01-15T04:52:21;18.92;53.98
65239;SHT30;51827;51.186;6.926;2023-01-15T04:53:21;18.92;53.93
65239;SHT30;51827;51.186;6.926;2023-01-15T04:54:22;18.92;53.86
65239;SHT30;51827;51.186;6.926;2023-01-15T04:55:22;18.91;53.88
65239;SHT30;51827;51.186;6.926;2023-01-15T04:56:22;18.92;53.90
65239;SHT30;51827;51.186;6.926;2023-01-15T04:57:22;18.92;53.85
65239;SHT30;51827;51.186;6.926;2023-01-15T04:58:23;18.92;53.82
65239;SHT30;51827;51.186;6.926;2023-01-15T04:59:25;18.92;53.90
65239;SHT30;51827;51.186;6.926;2023-01-15T05:00:25;18.89;53.84
65239;SHT30;51827;51.186;6.926;2023-01-15T05:01:26;18.91;53.78
65239;SHT30;51827;51.186;6.926;2023-01-15T05:02:26;18.94;53.75
65239;SHT30;51827;51.186;6.926;2023-01-15T05:03:27;18.89;53.87
65239;SHT30;51827;51.186;6.926;2023-01-15T05:04:28;18.89;53.85
65239;SHT30;51827;51.186;6.926;2023-01-15T05:05:28;18.92;53.83
65239;SHT30;51827;51.186;6.926;2023-01-15T05:06:28;18.89;53.76
65239;SHT30;51827;51.186;6.926;2023-01-15T05:07:29;18.89;53.78
65239;SHT30;51827;51.186;6.926;2023-01-15T05:08:29;18.89;53.86
65239;SHT30;51827;51.186;6.926;2023-01-15T05:09:29;18.91;53.73
65239;SHT30;51827;51.186;6.926;2023-01-15T05:10:30;18.88;53.82
65239;SHT30;51827;51.186;6.926;2023-01-15T05:11:33;18.91;53.82
65239;SHT30;51827;51.186;6.926;2023-01-15T05:12:37;18.88;53.82
65239;SHT30;51827;51.186;6.926;2023-01-15T05:13:37;18.91;53.72
65239;SHT30;51827;51.186;6.926;2023-01-15T05:14:37;18.91;53.72
65239;SHT30;51827;51.186;6.926;2023-01-15T05:15:38;18.89;53.70
65239;SHT30;51827;51.186;6.926;2023-01-15T05:16:38;18.89;53.73
65239;SHT30;51827;51.186;6.926;2023-01-15T05:17:38;18.88;53.76
65239;SHT30;51827;51.186;6.926;2023-01-15T05:18:40;18.88;53.78
65239;SHT30;51827;51.186;6.926;2023-01-15T05:19:40;18.92;53.78
65239;SHT30;51827;51.186;6.926;2023-01-15T05:20:41;18.91;53.67
65239;SHT30;51827;51.186;6.926;2023-01-15T05:21:42;18.88;53.80
65239;SHT30;51827;51.186;6.926;2023-01-15T05:22:42;18.88;53.69
65239;SHT30;51827;51.186;6.926;2023-01-15T05:23:43;18.88;53.70
65239;SHT30;51827;51.186;6.926;2023-01-15T05:24:44;18.88;53.76
65239;SHT30;51827;51.186;6.926;2023-01-15T05:25:44;18.86;53.69
65239;SHT30;51827;51.186;6.926;2023-01-15T05:26:44;18.89;53.61
65239;SHT30;51827;51.186;6.926;2023-01-15T05:27:44;18.86;53.64
65239;SHT30;51827;51.186;6.926;2023-01-15T05:28:45;18.89;53.63
65239;SHT30;51827;51.186;6.926;2023-01-15T05:29:45;18.91;53.66
65239;SHT30;51827;51.186;6.926;2023-01-15T05:30:46;18.88;53.64
65239;SHT30;51827;51.186;6.926;2023-01-15T05:31:46;18.88;53.65
65239;SHT30;51827;51.186;6.926;2023-01-15T05:32:46;18.89;53.61
65239;SHT30;51827;51.186;6.926;2023-01-15T05:33:47;18.89;53.59
65239;SHT30;51827;51.186;6.926;2023-01-15T05:34:48;18.91;53.59
65239;SHT30;51827;51.186;6.926;2023-01-15T05:35:48;18.89;53.58
65239;SHT30;51827;51.186;6.926;2023-01-15T05:36:48;18.85;53.57
65239;SHT30;51827;51.186;6.926;2023-01-15T05:37:48;18.89;53.57
65239;SHT30;51827;51.186;6.926;2023-01-15T05:38:49;18.91;53.54
65239;SHT30;51827;51.186;6.926;2023-01-15T05:39:49;18.88;53.55
65239;SHT30;51827;51.186;6.926;2023-01-15T05:40:49;18.86;53.61
65239;SHT30;51827;51.186;6.926;2023-01-15T05:41:50;18.88;53.59
65239;SHT30;51827;51.186;6.926;2023-01-15T05:42:50;18.88;53.57
65239;SHT30;51827;51.186;6.926;2023-01-15T05:43:50;18.89;53.57
65239;SHT30;51827;51.186;6.926;2023-01-15T05:44:51;18.86;53.56
65239;SHT30;51827;51.186;6.926;2023-01-15T05:45:51;18.86;53.58
65239;SHT30;51827;51.186;6.926;2023-01-15T05:46:59;18.89;53.49
65239;SHT30;51827;51.186;6.926;2023-01-15T05:48:00;18.88;53.51
65239;SHT30;51827;51.186;6.926;2023-01-15T05:49:02;18.86;53.50
65239;SHT30;51827;51.186;6.926;2023-01-15T05:50:03;18.86;53.48
65239;SHT30;51827;51.186;6.926;2023-01-15T05:51:03;18.89;53.46
65239;SHT30;51827;51.186;6.926;2023-01-15T05:52:04;18.86;53.46
65239;SHT30;51827;51.186;6.926;2023-01-15T05:53:05;18.89;53.40
65239;SHT30;51827;51.186;6.926;2023-01-15T05:54:08;18.88;53.42
65239;SHT30;51827;51.186;6.926;2023-01-15T05:55:09;18.89;53.47
65239;SHT30;51827;51.186;6.926;2023-01-15T05:56:10;18.86;53.41
65239;SHT30;51827;51.186;6.926;2023-01-15T05:57:11;18.84;53.51
65239;SHT30;51827;51.186;6.926;2023-01-15T05:58:11;18.86;53.47
65239;SHT30;51827;51.186;6.926;2023-01-15T05:59:12;18.86;53.42
65239;SHT30;51827;51.186;6.926;2023-01-15T06:00:13;18.85;53.36
65239;SHT30;51827;51.186;6.926;2023-01-15T06:01:13;18.86;53.41
65239;SHT30;51827;51.186;6.926;2023-01-15T06:02:14;18.88;53.40
65239;SHT30;51827;51.186;6.926;2023-01-15T06:03:14;18.86;53.40
65239;SHT30;51827;51.186;6.926;2023-01-15T06:04:15;18.86;53.46
65239;SHT30;51827;51.186;6.926;2023-01-15T06:05:16;18.89;53.28
65239;SHT30;51827;51.186;6.926;2023-01-15T06:06:17;18.88;53.29
65239;SHT30;51827;51.186;6.926;2023-01-15T06:07:17;18.88;53.39
65239;SHT30;51827;51.186;6.926;2023-01-15T06:08:17;18.86;53.31
65239;SHT30;51827;51.186;6.926;2023-01-15T06:09:18;18.88;53.40
65239;SHT30;51827;51.186;6.926;2023-01-15T06:10:19;18.84;53.34
65239;SHT30;51827;51.186;6.926;2023-01-15T06:11:20;18.88;53.31
65239;SHT30;51827;51.186;6.926;2023-01-15T06:12:20;18.88;53.28
65239;SHT30;51827;51.186;6.926;2023-01-15T06:13:21;18.86;53.28
65239;SHT30;51827;51.186;6.926;2023-01-15T06:14:21;18.84;53.29
65239;SHT30;51827;51.186;6.926;2023-01-15T06:15:22;18.85;53.31
65239;SHT30;51827;51.186;6.926;2023-01-15T06:16:22;18.88;53.31
65239;SHT30;51827;51.186;6.926;2023-01-15T06:17:23;18.88;53.27
65239;SHT30;51827;51.186;6.926;2023-01-15T06:18:23;18.86;53.29
65239;SHT30;51827;51.186;6.926;2023-01-15T06:19:23;18.86;53.28
65239;SHT30;51827;51.186;6.926;2023-01-15T06:20:23;18.85;53.29
65239;SHT30;51827;51.186;6.926;2023-01-15T06:21:24;18.85;53.29
65239;SHT30;51827;51.186;6.926;2023-01-15T06:22:24;18.85;53.23
65239;SHT30;51827;51.186;6.926;2023-01-15T06:23:24;18.85;53.28
65239;SHT30;51827;51.186;6.926;2023-01-15T06:24:24;18.85;53.28
65239;SHT30;51827;51.186;6.926;2023-01-15T06:25:25;18.84;53.25
65239;SHT30;51827;51.186;6.926;2023-01-15T06:26:25;18.85;53.25
65239;SHT30;51827;51.186;6.926;2023-01-15T06:27:26;18.86;53.27
65239;SHT30;51827;51.186;6.926;2023-01-15T06:28:27;18.84;53.23
65239;SHT30;51827;51.186;6.926;2023-01-15T06:29:27;18.85;53.22
65239;SHT30;51827;51.186;6.926;2023-01-15T06:30:27;18.88;53.18
65239;SHT30;51827;51.186;6.926;2023-01-15T06:31:27;18.85;53.19
65239;SHT30;51827;51.186;6.926;2023-01-15T06:32:28;18.86;53.21
65239;SHT30;51827;51.186;6.926;2023-01-15T06:33:28;18.86;53.16
65239;SHT30;51827;51.186;6.926;2023-01-15T06:34:28;18.88;53.23
65239;SHT30;51827;51.186;6.926;2023-01-15T06:35:29;18.85;53.18
65239;SHT30;51827;51.186;6.926;2023-01-15T06:36:29;18.86;53.17
65239;SHT30;51827;51.186;6.926;2023-01-15T06:37:29;18.85;53.18
65239;SHT30;51827;51.186;6.926;2023-01-15T06:38:29;18.85;53.14
65239;SHT30;51827;51.186;6.926;2023-01-15T06:39:30;18.85;53.09
65239;SHT30;51827;51.186;6.926;2023-01-15T06:40:30;18.85;53.11
65239;SHT30;51827;51.186;6.926;2023-01-15T06:41:30;18.85;53.06
65239;SHT30;51827;51.186;6.926;2023-01-15T06:42:30;18.84;53.13
65239;SHT30;51827;51.186;6.926;2023-01-15T06:43:31;18.85;53.08
65239;SHT30;51827;51.186;6.926;2023-01-15T06:44:31;18.84;53.11
65239;SHT30;51827;51.186;6.926;2023-01-15T06:45:36;18.88;53.09
65239;SHT30;51827;51.186;6.926;2023-01-15T06:46:43;18.86;53.06
65239;SHT30;51827;51.186;6.926;2023-01-15T06:47:43;18.85;53.09
65239;SHT30;51827;51.186;6.926;2023-01-15T06:48:44;18.84;53.09
65239;SHT30;51827;51.186;6.926;2023-01-15T06:49:44;18.86;53.05
65239;SHT30;51827;51.186;6.926;2023-01-15T06:50:44;18.82;53.02